Accueil
METAR-TAF:

METAR-TAF

Aéroports :

Friday Harbor Airport

Friday Harbor, Washington, États-Unis

latitude: 48-31-13N, longitude: 123-01-31W, altitude: 33 m

Observation

Le bulletin a été fait il y a 1 heure et 7 minutes, à 04:53 UTC
Vent 5 kt de sud-ouest
Température 10°C
Humidité 71%
Pression 1026 hPa
Visibilité: 16.1 km
Nuages fragmentés à une hauteur de 11000 ft

METAR: KFHR 220453Z AUTO 23005KT 10SM BKN110 10/05 A3029 RMK AO2 SLP257 T01000050

Heure: 23:00 (06:00 UTC)


TAF: absent

Observations et prévisions météorologiques de plus de 4000 aéroports (messages METAR et TAF).

Les stations disponibles sont représentées par des disques jaunes et rouges sur la carte.

Passer la souris dessus pour voir le nom de la station.

Cliquer dessus pour voir les observations et prévisions météorologiques.

Pour changer de carte: cliquez sur les boutons verts avec une croix noire pour zoomer, sur le bouton vert avec un tiret pour effectuer un zoom arrière, ou sur les flèches vertes pour les cartes adjacentes.


METAR-TAF: